createdAt,value
2022-10-19T00:00:01.014Z,91.10
2022-10-19T00:04:07.825Z,91.30
2022-10-19T00:08:10.792Z,91.44
2022-10-19T00:12:12.862Z,91.35
2022-10-19T00:16:16.506Z,91.20
2022-10-19T00:20:18.396Z,91.21
2022-10-19T00:24:20.840Z,91.36
2022-10-19T00:28:22.700Z,91.20
2022-10-19T00:32:24.548Z,91.17
2022-10-19T00:36:32.514Z,91.22
2022-10-19T00:40:38.732Z,91.38
2022-10-19T00:44:43.757Z,91.51
2022-10-19T00:48:45.982Z,91.44
2022-10-19T00:52:47.935Z,91.38
2022-10-19T00:56:54.375Z,91.47
2022-10-19T01:00:57.633Z,91.57
2022-10-19T01:05:00.802Z,91.54
2022-10-19T01:09:03.092Z,91.54
2022-10-19T01:13:42.212Z,91.51
2022-10-19T01:17:54.869Z,91.56
2022-10-19T01:22:26.988Z,91.73
2022-10-19T01:26:59.281Z,91.61
2022-10-19T01:31:26.128Z,91.73
2022-10-19T01:35:30.770Z,91.46
2022-10-19T01:39:45.274Z,91.52
2022-10-19T01:43:55.899Z,91.57
2022-10-19T01:48:18.579Z,91.46
2022-10-19T01:52:23.289Z,91.53
2022-10-19T01:56:27.919Z,91.61
2022-10-19T02:00:32.308Z,91.36
2022-10-19T02:04:36.368Z,91.43
2022-10-19T02:08:43.893Z,91.18
2022-10-19T02:12:47.619Z,91.20
2022-10-19T02:16:54.723Z,91.02
2022-10-19T02:20:57.866Z,90.83
2022-10-19T02:25:00.149Z,91.10
2022-10-19T02:29:02.092Z,90.87
2022-10-19T02:33:03.997Z,91.14
2022-10-19T02:37:06.460Z,91.35
2022-10-19T02:41:21.180Z,91.53
2022-10-19T02:45:30.537Z,91.10
2022-10-19T02:49:36.321Z,91.03
2022-10-19T02:53:38.186Z,90.94
2022-10-19T02:57:40.050Z,91.25
2022-10-19T03:01:42.076Z,91.32
2022-10-19T03:05:43.948Z,91.24
2022-10-19T03:09:45.973Z,91.33
2022-10-19T03:17:54.874Z,91.04
2022-10-19T03:21:56.880Z,91.10
2022-10-19T03:25:58.760Z,91.09
2022-10-19T03:30:00.611Z,90.95
2022-10-19T03:34:02.983Z,91.21
2022-10-19T03:38:04.818Z,90.98
2022-10-19T03:42:06.766Z,90.93
2022-10-19T03:46:08.840Z,91.05
2022-10-19T03:50:13.581Z,91.04
2022-10-19T03:54:16.612Z,91.16
2022-10-19T03:58:18.565Z,91.21
2022-10-19T04:02:20.473Z,91.19
2022-10-19T04:06:28.126Z,91.10
2022-10-19T04:10:31.083Z,91.15
2022-10-19T04:14:39.329Z,91.13
2022-10-19T04:18:55.245Z,91.23
2022-10-19T04:22:57.109Z,91.05
2022-10-19T04:26:58.996Z,91.03
2022-10-19T04:31:05.993Z,90.92
2022-10-19T04:35:07.955Z,91.07
2022-10-19T04:39:09.905Z,91.10
2022-10-19T04:43:11.741Z,91.15
2022-10-19T04:47:13.607Z,91.04
2022-10-19T04:51:16.669Z,91.06
2022-10-19T04:55:19.029Z,91.02
2022-10-19T04:59:21.234Z,91.13
2022-10-19T05:03:23.271Z,91.23
2022-10-19T05:07:25.323Z,91.20
2022-10-19T05:11:27.814Z,91.26
2022-10-19T05:15:30.470Z,91.32
2022-10-19T05:19:32.550Z,91.39
2022-10-19T05:23:34.843Z,91.52
2022-10-19T05:27:37.219Z,91.45
2022-10-19T05:31:39.916Z,91.48
2022-10-19T05:35:42.228Z,91.52
2022-10-19T05:39:44.383Z,91.59
2022-10-19T05:43:47.060Z,91.67
2022-10-19T05:47:48.908Z,91.69
2022-10-19T05:51:50.848Z,91.77
2022-10-19T05:55:52.803Z,91.73
2022-10-19T05:59:57.925Z,91.78
2022-10-19T06:04:01.457Z,91.68
2022-10-19T06:08:03.535Z,91.84
2022-10-19T06:12:05.400Z,91.81
2022-10-19T06:16:09.018Z,91.69
2022-10-19T06:20:11.253Z,91.81
2022-10-19T06:24:13.189Z,91.76
2022-10-19T06:28:15.121Z,91.84
2022-10-19T06:32:17.230Z,91.84
2022-10-19T06:36:22.017Z,91.62
2022-10-19T06:40:25.606Z,91.76
2022-10-19T06:44:27.602Z,91.68
2022-10-19T06:48:29.464Z,91.74
2022-10-19T06:52:32.586Z,91.73
2022-10-19T06:56:34.955Z,91.55
2022-10-19T07:00:36.815Z,91.56
2022-10-19T07:04:38.857Z,91.59
2022-10-19T07:08:42.301Z,91.42
2022-10-19T07:12:44.270Z,91.42
2022-10-19T07:16:46.245Z,91.35
2022-10-19T07:20:59.129Z,91.20
2022-10-19T07:25:01.038Z,90.98
2022-10-19T07:29:03.860Z,90.75
2022-10-19T07:33:06.384Z,90.62
2022-10-19T07:37:08.271Z,90.68
2022-10-19T07:41:12.945Z,90.66
2022-10-19T07:45:14.941Z,90.74
2022-10-19T07:49:18.635Z,90.68
2022-10-19T07:53:20.799Z,90.77
2022-10-19T07:57:22.640Z,90.84
2022-10-19T08:01:31.461Z,91.16
2022-10-19T08:05:34.596Z,91.04
2022-10-19T08:09:53.881Z,90.54
2022-10-19T08:13:58.717Z,90.49
2022-10-19T08:18:00.652Z,90.41
2022-10-19T08:22:02.519Z,90.48
2022-10-19T08:26:04.533Z,90.76
2022-10-19T08:30:06.980Z,90.86
2022-10-19T08:34:09.540Z,90.53
2022-10-19T08:38:11.433Z,90.21
2022-10-19T08:42:22.675Z,89.92
2022-10-19T08:46:29.669Z,89.56
2022-10-19T08:50:38.527Z,89.41
2022-10-19T08:59:13.668Z,88.85
2022-10-19T09:03:27.095Z,88.53
2022-10-19T09:07:45.200Z,87.99
2022-10-19T09:11:50.354Z,87.89
2022-10-19T09:15:54.822Z,87.14
2022-10-19T09:19:57.991Z,86.91
2022-10-19T09:24:15.732Z,85.95
2022-10-19T09:28:55.591Z,85.75
2022-10-19T09:33:01.608Z,85.65
2022-10-19T09:37:03.904Z,85.99
2022-10-19T09:41:18.870Z,86.65
2022-10-19T09:45:38.329Z,87.79
2022-10-19T09:49:45.782Z,87.81
2022-10-19T09:53:52.451Z,88.13
2022-10-19T09:58:04.110Z,88.00
2022-10-19T10:02:05.918Z,87.80
2022-10-19T10:06:12.157Z,87.75
2022-10-19T10:10:29.760Z,88.15
2022-10-19T10:14:36.102Z,88.48
2022-10-19T10:18:54.027Z,89.21
2022-10-19T10:22:59.865Z,89.98
2022-10-19T10:27:05.361Z,90.19
2022-10-19T10:31:08.541Z,90.77
2022-10-19T10:35:20.993Z,90.98
2022-10-19T10:39:26.540Z,90.59
2022-10-19T10:43:34.403Z,90.07
2022-10-19T10:47:39.038Z,89.79
2022-10-19T10:51:49.203Z,89.60
2022-10-19T10:55:57.212Z,89.26
2022-10-19T11:00:07.784Z,89.28
2022-10-19T11:04:16.133Z,89.48
2022-10-19T11:08:43.880Z,89.17
2022-10-19T11:12:51.750Z,88.48
2022-10-19T11:16:57.356Z,87.16
2022-10-19T11:21:25.927Z,87.20
2022-10-19T11:25:48.878Z,87.23
2022-10-19T11:30:12.847Z,87.11
2022-10-19T11:34:52.515Z,87.06
2022-10-19T11:39:34.130Z,87.19
2022-10-19T11:43:51.173Z,87.23
2022-10-19T11:48:09.739Z,87.44
2022-10-19T11:52:30.004Z,87.18
2022-10-19T11:56:58.072Z,86.88
2022-10-19T12:01:23.463Z,87.44
2022-10-19T12:05:37.636Z,87.50
2022-10-19T12:09:47.464Z,87.37
2022-10-19T12:14:00.539Z,87.17
2022-10-19T12:18:36.252Z,86.78
2022-10-19T12:22:39.841Z,86.96
2022-10-19T12:26:44.254Z,87.00
2022-10-19T12:30:46.664Z,86.67
2022-10-19T12:35:03.239Z,86.17
2022-10-19T12:39:07.921Z,86.41
2022-10-19T12:43:12.674Z,86.68
2022-10-19T12:47:23.053Z,86.20
2022-10-19T12:51:25.009Z,86.28
2022-10-19T12:55:34.480Z,85.67
2022-10-19T12:59:37.218Z,85.14
2022-10-19T13:03:44.542Z,84.72
2022-10-19T13:12:17.739Z,84.18
2022-10-19T13:16:29.674Z,82.58
2022-10-19T13:20:33.400Z,82.21
2022-10-19T13:24:36.990Z,80.12
2022-10-19T13:28:52.902Z,80.62
2022-10-19T13:32:54.835Z,80.17
2022-10-19T13:37:02.045Z,79.97
2022-10-19T13:41:15.469Z,80.20
2022-10-19T13:45:24.526Z,80.69
2022-10-19T13:49:49.288Z,81.14
2022-10-19T13:54:13.535Z,81.18
2022-10-19T13:58:53.901Z,80.91
2022-10-19T14:03:01.466Z,81.01
2022-10-19T14:07:15.357Z,80.70
2022-10-19T14:11:19.030Z,80.23
2022-10-19T14:15:27.602Z,79.93
2022-10-19T14:19:30.862Z,79.28
2022-10-19T14:23:39.359Z,78.98
2022-10-19T14:27:41.965Z,78.92
2022-10-19T14:31:43.867Z,78.27
2022-10-19T14:35:49.634Z,78.41
2022-10-19T14:40:05.278Z,78.85
2022-10-19T14:44:40.801Z,79.38
2022-10-19T14:48:45.420Z,79.94
2022-10-19T14:52:51.796Z,80.01
2022-10-19T14:56:59.257Z,80.19
2022-10-19T15:01:01.398Z,80.19
2022-10-19T15:05:05.538Z,80.36
2022-10-19T15:09:24.705Z,80.50
2022-10-19T15:13:42.680Z,80.72
2022-10-19T15:17:54.027Z,80.88
2022-10-19T15:22:14.023Z,80.93
2022-10-19T15:26:21.686Z,81.03
2022-10-19T15:30:28.291Z,81.13
2022-10-19T15:34:30.842Z,81.27
2022-10-19T15:38:34.354Z,81.46
2022-10-19T15:42:44.152Z,81.82
2022-10-19T15:46:49.154Z,81.65
2022-10-19T15:50:53.853Z,81.89
2022-10-19T15:54:58.088Z,81.83
2022-10-19T15:59:02.675Z,81.95
2022-10-19T16:03:04.739Z,82.12
2022-10-19T16:07:06.792Z,82.50
2022-10-19T16:11:13.272Z,82.71
2022-10-19T16:15:21.864Z,82.76
2022-10-19T16:19:23.864Z,82.67
2022-10-19T16:23:26.999Z,82.66
2022-10-19T16:27:29.060Z,82.59
2022-10-19T16:31:31.213Z,82.62
2022-10-19T16:35:33.281Z,82.63
2022-10-19T16:39:35.365Z,82.60
2022-10-19T16:43:37.916Z,82.59
2022-10-19T16:47:39.971Z,82.50
2022-10-19T16:51:42.256Z,82.46
2022-10-19T16:55:44.179Z,82.13
2022-10-19T16:59:50.915Z,82.08
2022-10-19T17:03:53.351Z,82.01
2022-10-19T17:07:55.297Z,82.23
2022-10-19T17:11:57.249Z,82.40
2022-10-19T17:16:02.638Z,82.36
2022-10-19T17:20:05.167Z,82.36
2022-10-19T17:24:13.837Z,82.33
2022-10-19T17:28:19.223Z,82.26
2022-10-19T17:32:21.988Z,82.03
2022-10-19T17:36:28.085Z,82.09
2022-10-19T17:40:30.081Z,82.01
2022-10-19T17:44:32.113Z,82.10
2022-10-19T17:48:35.773Z,82.23
2022-10-19T17:52:37.674Z,82.29
2022-10-19T17:56:41.196Z,82.26
2022-10-19T18:00:43.561Z,82.40
2022-10-19T18:04:45.529Z,82.52
2022-10-19T18:08:50.703Z,82.67
2022-10-19T18:12:52.791Z,83.01
2022-10-19T18:16:54.729Z,83.15
2022-10-19T18:20:57.332Z,83.22
2022-10-19T18:24:59.257Z,83.34
2022-10-19T18:29:09.552Z,83.44
2022-10-19T18:33:11.547Z,83.37
2022-10-19T18:37:13.608Z,83.26
2022-10-19T18:41:15.532Z,83.29
2022-10-19T18:45:17.680Z,83.30
2022-10-19T18:49:20.023Z,83.29
2022-10-19T18:53:22.526Z,83.55
2022-10-19T18:57:28.248Z,83.24
2022-10-19T19:01:33.408Z,83.34
2022-10-19T19:05:35.424Z,83.44
2022-10-19T19:09:37.857Z,83.36
2022-10-19T19:13:40.830Z,83.48
2022-10-19T19:17:42.967Z,83.47
2022-10-19T19:21:45.853Z,83.67
2022-10-19T19:25:47.740Z,83.73
2022-10-19T19:29:57.570Z,83.74
2022-10-19T19:34:00.792Z,83.92
2022-10-19T19:38:02.710Z,83.85
2022-10-19T19:42:04.799Z,83.96
2022-10-19T19:46:12.089Z,84.02
2022-10-19T19:50:14.045Z,83.95
2022-10-19T19:54:15.902Z,84.04
2022-10-19T19:58:18.508Z,84.19
2022-10-19T20:02:20.929Z,84.38
2022-10-19T20:06:25.778Z,84.46
2022-10-19T20:10:28.229Z,84.75
2022-10-19T20:14:30.177Z,85.15
2022-10-19T20:18:32.099Z,85.21
2022-10-19T20:22:34.164Z,85.12
2022-10-19T20:26:36.220Z,85.08
2022-10-19T20:30:38.087Z,85.03
2022-10-19T20:34:40.033Z,85.18
2022-10-19T20:38:48.376Z,85.26
2022-10-19T20:42:50.288Z,85.21
2022-10-19T20:46:52.141Z,85.19
2022-10-19T20:50:54.020Z,85.15
2022-10-19T20:54:55.997Z,85.38
2022-10-19T20:59:04.530Z,85.43
2022-10-19T21:03:06.626Z,85.42
2022-10-19T21:07:08.645Z,85.33
2022-10-19T21:11:16.720Z,85.50
2022-10-19T21:15:18.585Z,85.67
2022-10-19T21:19:23.383Z,85.68
2022-10-19T21:23:25.321Z,85.88
2022-10-19T21:27:27.170Z,86.13
2022-10-19T21:31:29.165Z,86.18
2022-10-19T21:35:31.490Z,86.22
2022-10-19T21:39:33.485Z,86.25
2022-10-19T21:43:35.583Z,86.44
2022-10-19T21:47:37.948Z,86.70
2022-10-19T21:51:56.633Z,86.55
2022-10-19T21:55:59.057Z,86.21
2022-10-19T22:00:01.028Z,86.05
2022-10-19T22:04:05.202Z,86.07
2022-10-19T22:08:07.176Z,86.15
2022-10-19T22:12:09.346Z,86.24
2022-10-19T22:16:17.406Z,86.24
2022-10-19T22:20:19.313Z,86.13
2022-10-19T22:24:21.254Z,86.28
2022-10-19T22:28:23.275Z,86.32
2022-10-19T22:32:25.311Z,86.70
2022-10-19T22:36:27.845Z,86.24
2022-10-19T22:40:29.720Z,86.33
2022-10-19T22:44:31.934Z,86.73
2022-10-19T22:48:33.820Z,86.85
2022-10-19T22:52:35.811Z,86.89
2022-10-19T22:56:38.155Z,87.07
2022-10-19T23:00:40.308Z,87.01
2022-10-19T23:04:42.189Z,87.09
2022-10-19T23:08:44.696Z,87.29
2022-10-19T23:12:51.341Z,87.55
2022-10-19T23:16:53.218Z,87.46
2022-10-19T23:21:00.930Z,87.79
2022-10-19T23:25:03.110Z,87.91
2022-10-19T23:29:05.075Z,87.92
2022-10-19T23:33:06.880Z,87.87
2022-10-19T23:37:08.729Z,87.66
2022-10-19T23:41:11.590Z,87.69
2022-10-19T23:45:14.874Z,87.88
2022-10-19T23:49:16.833Z,88.09
2022-10-19T23:53:18.757Z,88.05
2022-10-19T23:57:20.651Z,88.04
